createdAt,value
2022-08-14T00:00:13.977Z,22.89
2022-08-14T00:02:44.898Z,22.80
2022-08-14T00:05:25.412Z,22.90
2022-08-14T00:07:55.842Z,22.89
2022-08-14T00:10:51.306Z,22.73
2022-08-14T00:13:21.373Z,22.87
2022-08-14T00:15:54.315Z,22.87
2022-08-14T00:19:05.393Z,22.84
2022-08-14T00:21:17.025Z,22.84
2022-08-14T00:23:54.088Z,22.82
2022-08-14T00:26:23.723Z,22.80
2022-08-14T00:28:54.624Z,22.78
2022-08-14T00:31:35.331Z,22.72
2022-08-14T00:34:36.063Z,22.73
2022-08-14T00:37:05.709Z,22.74
2022-08-14T00:39:35.069Z,22.64
2022-08-14T00:42:05.714Z,22.59
2022-08-14T00:44:35.220Z,22.70
2022-08-14T00:47:10.864Z,22.68
2022-08-14T00:49:43.351Z,22.59
2022-08-14T00:52:18.247Z,22.64
2022-08-14T00:54:58.222Z,22.52
2022-08-14T00:57:30.548Z,22.56
2022-08-14T01:00:01.143Z,22.50
2022-08-14T01:02:32.353Z,22.63
2022-08-14T01:05:07.880Z,22.57
2022-08-14T01:07:47.399Z,22.40
2022-08-14T01:10:23.928Z,22.63
2022-08-14T01:13:07.066Z,22.59
2022-08-14T01:15:57.879Z,22.57
2022-08-14T01:18:57.840Z,22.50
2022-08-14T01:21:38.779Z,22.55
2022-08-14T01:24:24.822Z,22.51
2022-08-14T01:27:00.988Z,22.43
2022-08-14T01:29:52.764Z,22.51
2022-08-14T01:32:29.918Z,22.40
2022-08-14T01:35:20.114Z,22.41
2022-08-14T01:37:56.443Z,22.30
2022-08-14T01:40:37.058Z,22.25
2022-08-14T01:43:18.947Z,22.26
2022-08-14T01:45:57.838Z,21.94
2022-08-14T01:48:37.864Z,22.21
2022-08-14T01:51:19.132Z,22.10
2022-08-14T01:53:55.886Z,22.17
2022-08-14T01:56:38.968Z,22.09
2022-08-14T01:59:18.107Z,22.03
2022-08-14T02:01:58.438Z,22.09
2022-08-14T02:04:56.236Z,22.05
2022-08-14T02:07:34.304Z,22.05
2022-08-14T02:10:16.637Z,22.01
2022-08-14T02:12:56.893Z,21.98
2022-08-14T02:15:27.199Z,21.96
2022-08-14T02:17:56.670Z,21.88
2022-08-14T02:20:34.086Z,21.81
2022-08-14T02:23:05.645Z,21.82
2022-08-14T02:25:39.533Z,21.65
2022-08-14T02:28:24.609Z,21.74
2022-08-14T02:30:58.404Z,21.72
2022-08-14T02:33:29.429Z,21.68
2022-08-14T02:37:02.563Z,21.63
2022-08-14T02:38:53.058Z,21.58
2022-08-14T02:41:26.340Z,21.54
2022-08-14T02:44:00.677Z,21.57
2022-08-14T02:46:32.380Z,21.55
2022-08-14T02:49:06.278Z,21.54
2022-08-14T02:51:37.336Z,21.52
2022-08-14T02:54:09.206Z,21.56
2022-08-14T02:57:15.966Z,21.56
2022-08-14T02:59:33.869Z,21.52
2022-08-14T03:02:05.276Z,21.47
2022-08-14T03:04:35.046Z,21.19
2022-08-14T03:07:07.463Z,21.52
2022-08-14T03:10:26.930Z,21.46
2022-08-14T03:12:32.842Z,21.52
2022-08-14T03:15:16.225Z,21.42
2022-08-14T03:17:56.334Z,21.46
2022-08-14T03:20:29.000Z,21.38
2022-08-14T03:23:03.103Z,21.37
2022-08-14T03:25:37.697Z,21.30
2022-08-14T03:28:14.356Z,21.31
2022-08-14T03:30:44.213Z,21.29
2022-08-14T03:33:15.539Z,21.30
2022-08-14T03:36:00.217Z,21.29
2022-08-14T03:39:13.316Z,21.18
2022-08-14T03:41:33.072Z,21.18
2022-08-14T03:45:19.013Z,21.20
2022-08-14T03:47:03.577Z,21.17
2022-08-14T03:49:33.928Z,21.15
2022-08-14T03:52:07.877Z,21.13
2022-08-14T03:55:01.199Z,21.04
2022-08-14T03:57:37.042Z,21.04
2022-08-14T04:00:42.974Z,20.89
2022-08-14T04:03:02.818Z,20.99
2022-08-14T04:05:42.550Z,20.99
2022-08-14T04:08:29.729Z,21.00
2022-08-14T04:11:02.700Z,20.96
2022-08-14T04:13:34.097Z,20.89
2022-08-14T04:16:12.371Z,20.87
2022-08-14T04:18:43.480Z,20.79
2022-08-14T04:21:13.817Z,20.81
2022-08-14T04:23:45.674Z,20.78
2022-08-14T04:26:42.352Z,20.68
2022-08-14T04:29:15.563Z,20.72
2022-08-14T04:33:01.662Z,20.66
2022-08-14T04:34:41.832Z,20.69
2022-08-14T04:37:29.402Z,20.71
2022-08-14T04:40:17.054Z,20.66
2022-08-14T04:43:03.651Z,20.63
2022-08-14T04:45:40.840Z,20.61
2022-08-14T04:48:39.112Z,20.52
2022-08-14T04:51:06.379Z,20.61
2022-08-14T04:53:42.910Z,20.39
2022-08-14T04:56:31.645Z,20.51
2022-08-14T04:59:09.755Z,20.46
2022-08-14T05:01:47.913Z,20.45
2022-08-14T05:04:21.763Z,20.48
2022-08-14T05:06:53.649Z,20.46
2022-08-14T05:09:28.911Z,20.46
2022-08-14T05:13:10.785Z,20.37
2022-08-14T05:14:55.247Z,20.44
2022-08-14T05:17:32.220Z,20.16
2022-08-14T05:21:57.613Z,20.42
2022-08-14T05:23:04.683Z,20.40
2022-08-14T05:25:34.397Z,20.42
2022-08-14T05:28:16.286Z,20.38
2022-08-14T05:30:46.855Z,20.38
2022-08-14T05:33:18.658Z,20.43
2022-08-14T05:35:51.057Z,20.36
2022-08-14T05:38:31.190Z,20.27
2022-08-14T05:41:02.957Z,20.43
2022-08-14T05:43:41.595Z,20.44
2022-08-14T05:46:15.134Z,20.34
2022-08-14T05:48:45.517Z,20.42
2022-08-14T05:51:17.067Z,20.47
2022-08-14T05:54:00.217Z,20.39
2022-08-14T05:56:31.232Z,20.54
2022-08-14T05:59:01.818Z,20.62
2022-08-14T06:01:31.802Z,20.70
2022-08-14T06:04:01.424Z,20.76
2022-08-14T06:06:38.345Z,20.79
2022-08-14T06:09:09.665Z,20.80
2022-08-14T06:11:39.504Z,20.87
2022-08-14T06:14:12.377Z,20.91
2022-08-14T06:16:50.075Z,21.08
2022-08-14T06:19:23.372Z,21.13
2022-08-14T06:21:58.448Z,21.23
2022-08-14T06:24:30.588Z,21.32
2022-08-14T06:27:09.773Z,21.43
2022-08-14T06:29:40.408Z,21.40
2022-08-14T06:32:37.691Z,21.55
2022-08-14T06:35:04.755Z,21.64
2022-08-14T06:37:44.304Z,21.60
2022-08-14T06:40:26.249Z,21.71
2022-08-14T06:43:00.198Z,21.82
2022-08-14T06:45:33.443Z,21.76
2022-08-14T06:48:06.057Z,21.93
2022-08-14T06:50:35.791Z,21.96
2022-08-14T06:53:07.409Z,21.86
2022-08-14T06:55:40.785Z,21.99
2022-08-14T06:58:28.551Z,21.95
2022-08-14T07:01:18.409Z,22.02
2022-08-14T07:04:18.912Z,22.15
2022-08-14T07:06:55.465Z,22.03
2022-08-14T07:09:43.521Z,22.41
2022-08-14T07:12:34.870Z,22.49
2022-08-14T07:15:04.967Z,22.56
2022-08-14T07:17:36.265Z,22.56
2022-08-14T07:20:07.637Z,22.74
2022-08-14T07:22:56.029Z,22.91
2022-08-14T07:25:32.529Z,23.12
2022-08-14T07:28:09.699Z,23.38
2022-08-14T07:30:50.770Z,23.63
2022-08-14T07:33:29.264Z,23.79
2022-08-14T07:36:25.468Z,24.18
2022-08-14T07:38:53.982Z,24.57
2022-08-14T07:41:24.927Z,24.95
2022-08-14T07:44:32.177Z,25.06
2022-08-14T07:46:53.887Z,25.14
2022-08-14T07:49:24.586Z,25.08
2022-08-14T07:51:53.829Z,25.06
2022-08-14T07:54:29.850Z,25.04
2022-08-14T07:57:11.924Z,25.00
2022-08-14T07:59:44.233Z,25.10
2022-08-14T08:02:18.836Z,25.27
2022-08-14T08:04:55.398Z,25.60
2022-08-14T08:07:31.895Z,25.91
2022-08-14T08:10:46.540Z,26.16
2022-08-14T08:13:17.260Z,26.55
2022-08-14T08:15:49.157Z,26.85
2022-08-14T08:18:27.385Z,27.03
2022-08-14T08:21:00.232Z,27.25
2022-08-14T08:23:40.819Z,27.48
2022-08-14T08:26:12.935Z,27.67
2022-08-14T08:28:45.208Z,27.73
2022-08-14T08:31:14.572Z,27.72
2022-08-14T08:33:46.957Z,27.87
2022-08-14T08:36:19.194Z,28.07
2022-08-14T08:39:14.587Z,28.36
2022-08-14T08:41:50.463Z,28.68
2022-08-14T08:44:31.914Z,28.89
2022-08-14T08:47:06.507Z,29.01
2022-08-14T08:49:48.382Z,29.14
2022-08-14T08:52:25.456Z,29.35
2022-08-14T08:54:58.838Z,29.56
2022-08-14T08:57:28.385Z,29.62
2022-08-14T09:00:09.876Z,29.49
2022-08-14T09:03:04.113Z,29.34
2022-08-14T09:05:36.762Z,29.17
2022-08-14T09:08:30.953Z,28.97
2022-08-14T09:11:18.851Z,28.78
2022-08-14T09:13:52.545Z,28.53
2022-08-14T09:16:26.347Z,28.34
2022-08-14T09:18:56.150Z,28.12
2022-08-14T09:21:31.425Z,28.05
2022-08-14T09:24:26.491Z,27.78
2022-08-14T09:26:52.596Z,27.78
2022-08-14T09:29:23.012Z,27.65
2022-08-14T09:31:58.259Z,27.56
2022-08-14T09:34:58.971Z,27.36
2022-08-14T09:37:53.924Z,27.47
2022-08-14T09:40:42.219Z,27.75
2022-08-14T09:43:33.505Z,27.88
2022-08-14T09:46:09.153Z,27.94
2022-08-14T09:48:41.120Z,28.20
2022-08-14T09:51:25.460Z,28.43
2022-08-14T09:54:18.781Z,28.45
2022-08-14T09:56:56.665Z,28.29
2022-08-14T09:59:46.230Z,28.28
2022-08-14T10:02:28.494Z,28.25
2022-08-14T10:05:05.150Z,28.23
2022-08-14T10:07:50.672Z,28.33
2022-08-14T10:10:34.792Z,28.42
2022-08-14T10:13:06.957Z,28.66
2022-08-14T10:15:46.999Z,28.97
2022-08-14T10:18:22.006Z,29.34
2022-08-14T10:21:00.931Z,29.65
2022-08-14T10:23:44.603Z,29.83
2022-08-14T10:26:22.365Z,29.81
2022-08-14T10:29:18.874Z,30.02
2022-08-14T10:31:45.789Z,30.46
2022-08-14T10:34:21.201Z,30.97
2022-08-14T10:37:14.276Z,31.33
2022-08-14T10:39:51.428Z,31.80
2022-08-14T10:42:40.419Z,32.21
2022-08-14T10:45:21.938Z,32.41
2022-08-14T10:48:09.084Z,32.65
2022-08-14T10:50:45.921Z,33.00
2022-08-14T10:53:18.051Z,33.25
2022-08-14T10:55:48.595Z,33.42
2022-08-14T10:58:32.936Z,33.51
2022-08-14T11:01:08.057Z,33.86
2022-08-14T11:03:56.949Z,34.07
2022-08-14T11:06:27.219Z,34.36
2022-08-14T11:08:58.595Z,34.71
2022-08-14T11:11:28.516Z,35.03
2022-08-14T11:14:09.475Z,35.29
2022-08-14T11:16:40.653Z,35.43
2022-08-14T11:19:11.366Z,35.60
2022-08-14T11:21:45.786Z,35.76
2022-08-14T11:24:50.516Z,36.03
2022-08-14T11:27:09.601Z,36.45
2022-08-14T11:29:41.584Z,36.73
2022-08-14T11:32:11.172Z,37.05
2022-08-14T11:34:40.662Z,37.21
2022-08-14T11:37:19.330Z,37.47
2022-08-14T11:39:55.603Z,37.72
2022-08-14T11:42:56.702Z,37.98
2022-08-14T11:45:23.100Z,38.15
2022-08-14T11:48:12.740Z,37.89
2022-08-14T11:50:44.892Z,37.62
2022-08-14T11:53:25.385Z,37.27
2022-08-14T11:55:59.500Z,37.18
2022-08-14T11:58:31.351Z,37.20
2022-08-14T12:01:06.861Z,36.94
2022-08-14T12:03:51.169Z,36.43
2022-08-14T12:06:28.619Z,35.80
2022-08-14T12:09:14.939Z,35.14
2022-08-14T12:11:47.239Z,34.75
2022-08-14T12:14:29.764Z,33.80
2022-08-14T12:17:04.214Z,33.75
2022-08-14T12:19:51.263Z,33.52
2022-08-14T12:22:35.806Z,33.08
2022-08-14T12:25:11.492Z,32.88
2022-08-14T12:27:52.544Z,32.56
2022-08-14T12:30:43.133Z,32.25
2022-08-14T12:33:30.601Z,31.92
2022-08-14T12:36:05.551Z,31.71
2022-08-14T12:38:38.954Z,31.65
2022-08-14T12:41:20.243Z,31.40
2022-08-14T12:43:56.793Z,31.58
2022-08-14T12:46:31.737Z,31.56
2022-08-14T12:49:06.567Z,31.34
2022-08-14T12:51:36.298Z,31.25
2022-08-14T12:54:26.064Z,31.14
2022-08-14T12:57:07.290Z,31.02
2022-08-14T12:59:42.744Z,31.28
2022-08-14T13:02:25.291Z,31.39
2022-08-14T13:04:58.148Z,31.46
2022-08-14T13:07:32.604Z,31.60
2022-08-14T13:10:47.813Z,31.63
2022-08-14T13:13:13.026Z,31.70
2022-08-14T13:15:46.506Z,31.61
2022-08-14T13:18:17.755Z,31.55
2022-08-14T13:20:57.641Z,31.62
2022-08-14T13:23:32.033Z,31.62
2022-08-14T13:26:02.811Z,31.55
2022-08-14T13:28:41.338Z,31.33
2022-08-14T13:31:30.346Z,30.95
2022-08-14T13:34:00.294Z,30.91
2022-08-14T13:36:54.389Z,30.82
2022-08-14T13:39:22.269Z,30.91
2022-08-14T13:41:56.038Z,31.07
2022-08-14T13:44:29.054Z,31.53
2022-08-14T13:47:00.183Z,32.01
2022-08-14T13:49:33.212Z,32.42
2022-08-14T13:52:48.232Z,32.64
2022-08-14T13:54:59.640Z,32.92
2022-08-14T13:57:33.394Z,32.77
2022-08-14T14:00:08.634Z,32.78
2022-08-14T14:02:46.391Z,32.75
2022-08-14T14:05:19.414Z,32.86
2022-08-14T14:07:54.113Z,32.91
2022-08-14T14:10:28.479Z,32.73
2022-08-14T14:12:58.176Z,32.54
2022-08-14T14:15:33.866Z,32.38
2022-08-14T14:18:33.855Z,32.43
2022-08-14T14:21:06.640Z,32.41
2022-08-14T14:23:39.759Z,32.30
2022-08-14T14:26:13.759Z,32.28
2022-08-14T14:28:50.623Z,32.24
2022-08-14T14:31:29.649Z,32.10
2022-08-14T14:34:07.493Z,31.84
2022-08-14T14:36:44.586Z,31.73
2022-08-14T14:39:25.544Z,31.61
2022-08-14T14:42:00.698Z,31.42
2022-08-14T14:44:40.568Z,31.21
2022-08-14T14:47:12.005Z,30.91
2022-08-14T14:49:54.739Z,30.43
2022-08-14T14:52:27.076Z,30.13
2022-08-14T14:54:58.990Z,30.05
2022-08-14T14:57:35.568Z,29.81
2022-08-14T15:00:12.947Z,29.64
2022-08-14T15:02:44.531Z,29.52
2022-08-14T15:05:19.071Z,29.32
2022-08-14T15:07:54.006Z,29.20
2022-08-14T15:10:27.929Z,29.04
2022-08-14T15:13:04.036Z,28.99
2022-08-14T15:15:37.150Z,28.98
2022-08-14T15:18:36.772Z,29.00
2022-08-14T15:21:02.703Z,28.94
2022-08-14T15:23:44.230Z,28.72
2022-08-14T15:26:24.088Z,28.55
2022-08-14T15:29:05.182Z,28.31
2022-08-14T15:31:37.203Z,28.11
2022-08-14T15:34:44.656Z,28.04
2022-08-14T15:37:12.793Z,27.87
2022-08-14T15:39:42.993Z,27.91
2022-08-14T15:42:15.794Z,27.82
2022-08-14T15:44:58.316Z,27.73
2022-08-14T15:47:33.181Z,27.54
2022-08-14T15:50:08.775Z,27.43
2022-08-14T15:52:43.248Z,27.32
2022-08-14T15:55:16.406Z,27.17
2022-08-14T15:58:01.338Z,27.12
2022-08-14T16:00:51.859Z,26.99
2022-08-14T16:03:24.797Z,26.93
2022-08-14T16:05:57.303Z,26.82
2022-08-14T16:08:30.109Z,26.59
2022-08-14T16:11:01.977Z,26.53
2022-08-14T16:13:39.204Z,26.26
2022-08-14T16:16:51.082Z,26.23
2022-08-14T16:19:11.247Z,26.26
2022-08-14T16:22:01.295Z,26.19
2022-08-14T16:25:01.929Z,26.12
2022-08-14T16:27:37.071Z,26.06
2022-08-14T16:30:20.691Z,25.90
2022-08-14T16:32:56.752Z,25.84
2022-08-14T16:35:42.291Z,25.86
2022-08-14T16:38:46.338Z,25.74
2022-08-14T16:41:22.866Z,25.58
2022-08-14T16:44:01.436Z,25.54
2022-08-14T16:46:38.327Z,25.64
2022-08-14T16:49:16.248Z,25.83
2022-08-14T16:51:51.390Z,26.08
2022-08-14T16:54:35.345Z,26.22
2022-08-14T16:57:22.463Z,26.38
2022-08-14T16:59:57.771Z,26.41
2022-08-14T17:02:39.118Z,26.45
2022-08-14T17:05:21.968Z,26.47
2022-08-14T17:08:31.644Z,26.45
2022-08-14T17:11:11.031Z,26.37
2022-08-14T17:13:57.882Z,26.31
2022-08-14T17:16:37.472Z,26.21
2022-08-14T17:19:09.749Z,26.01
2022-08-14T17:21:47.007Z,26.07
2022-08-14T17:24:56.985Z,26.04
2022-08-14T17:30:00.255Z,25.84
2022-08-14T17:32:44.542Z,25.67
2022-08-14T17:35:57.553Z,25.57
2022-08-14T17:41:32.710Z,25.45
2022-08-14T17:44:34.103Z,25.53
2022-08-14T17:47:14.510Z,25.65
2022-08-14T17:49:51.981Z,25.71
2022-08-14T17:52:34.285Z,25.74
2022-08-14T17:55:09.947Z,25.73
2022-08-14T17:57:43.726Z,25.72
2022-08-14T18:00:17.858Z,25.67
2022-08-14T18:02:51.233Z,25.67
2022-08-14T18:06:07.730Z,25.50
2022-08-14T18:08:32.612Z,25.52
2022-08-14T18:11:04.142Z,25.44
2022-08-14T18:13:51.890Z,25.46
2022-08-14T18:16:23.046Z,25.29
2022-08-14T18:18:53.985Z,25.33
2022-08-14T18:21:41.927Z,25.22
2022-08-14T18:24:28.221Z,25.14
2022-08-14T18:27:09.432Z,25.10
2022-08-14T18:29:54.998Z,24.95
2022-08-14T18:32:47.280Z,24.85
2022-08-14T18:35:21.070Z,24.81
2022-08-14T18:37:55.460Z,24.83
2022-08-14T18:40:35.096Z,24.84
2022-08-14T18:43:07.412Z,24.83
2022-08-14T18:45:41.491Z,24.77
2022-08-14T18:48:50.084Z,24.62
2022-08-14T18:51:45.350Z,24.73
2022-08-14T18:54:33.009Z,24.78
2022-08-14T18:57:05.682Z,24.71
2022-08-14T18:59:42.304Z,24.62
2022-08-14T19:02:44.182Z,24.65
2022-08-14T19:05:15.128Z,24.66
2022-08-14T19:07:48.384Z,24.60
2022-08-14T19:10:37.252Z,24.53
2022-08-14T19:13:12.931Z,24.64
2022-08-14T19:15:56.066Z,24.67
2022-08-14T19:18:28.876Z,24.62
2022-08-14T19:21:01.637Z,24.59
2022-08-14T19:23:44.100Z,24.60
2022-08-14T19:26:35.875Z,24.54
2022-08-14T19:29:36.210Z,24.50
2022-08-14T19:32:41.007Z,24.48
2022-08-14T19:35:59.900Z,24.49
2022-08-14T19:38:57.331Z,24.48
2022-08-14T19:41:30.462Z,24.43
2022-08-14T19:44:19.167Z,24.38
2022-08-14T19:47:01.755Z,24.39
2022-08-14T19:50:07.955Z,24.41
2022-08-14T19:52:30.015Z,24.36
2022-08-14T19:55:16.545Z,24.40
2022-08-14T19:57:52.294Z,24.41
2022-08-14T20:00:30.278Z,24.41
2022-08-14T20:03:10.905Z,24.43
2022-08-14T20:05:42.879Z,24.28
2022-08-14T20:11:01.368Z,24.36
2022-08-14T20:12:01.135Z,24.43
2022-08-14T20:14:20.370Z,24.46
2022-08-14T20:17:03.251Z,24.48
2022-08-14T20:19:37.225Z,24.47
2022-08-14T20:22:37.580Z,24.42
2022-08-14T20:25:15.245Z,24.40
2022-08-14T20:27:49.924Z,24.35
2022-08-14T20:30:34.671Z,24.25
2022-08-14T20:33:11.295Z,24.35
2022-08-14T20:35:49.343Z,24.37
2022-08-14T20:38:30.539Z,24.35
2022-08-14T20:41:05.756Z,24.41
2022-08-14T20:43:58.611Z,24.40
2022-08-14T20:46:31.690Z,24.42
2022-08-14T20:49:03.658Z,24.39
2022-08-14T20:51:47.346Z,24.37
2022-08-14T20:54:34.062Z,24.36
2022-08-14T20:57:12.056Z,24.34
2022-08-14T20:59:50.409Z,24.25
2022-08-14T21:02:46.508Z,24.20
2022-08-14T21:05:34.427Z,24.26
2022-08-14T21:08:08.368Z,24.12
2022-08-14T21:10:54.967Z,24.23
2022-08-14T21:14:19.481Z,24.15
2022-08-14T21:16:33.003Z,24.18
2022-08-14T21:19:06.002Z,24.26
2022-08-14T21:21:41.840Z,24.20
2022-08-14T21:24:38.725Z,24.20
2022-08-14T21:27:13.003Z,24.17
2022-08-14T21:29:55.056Z,24.18
2022-08-14T21:32:46.958Z,24.15
2022-08-14T21:35:22.987Z,24.15
2022-08-14T21:37:53.933Z,24.08
2022-08-14T21:40:40.278Z,24.06
2022-08-14T21:43:17.925Z,24.12
2022-08-14T21:45:53.384Z,24.06
2022-08-14T21:48:29.272Z,23.99
2022-08-14T21:51:53.578Z,23.72
2022-08-14T21:54:00.261Z,24.00
2022-08-14T21:56:38.866Z,23.96
2022-08-14T21:59:18.087Z,23.97
2022-08-14T22:02:01.975Z,23.94
2022-08-14T22:04:40.439Z,23.99
2022-08-14T22:07:17.067Z,23.97
2022-08-14T22:09:55.521Z,23.93
2022-08-14T22:12:58.736Z,23.92
2022-08-14T22:15:19.158Z,23.86
2022-08-14T22:17:55.228Z,23.92
2022-08-14T22:20:29.562Z,23.88
2022-08-14T22:23:05.536Z,23.91
2022-08-14T22:25:41.230Z,23.93
2022-08-14T22:28:17.910Z,23.86
2022-08-14T22:30:55.293Z,23.91
2022-08-14T22:33:31.306Z,23.97
2022-08-14T22:36:25.616Z,24.02
2022-08-14T22:38:57.634Z,24.00
2022-08-14T22:41:32.654Z,23.96
2022-08-14T22:44:11.210Z,23.95
2022-08-14T22:46:43.271Z,23.85
2022-08-14T22:50:29.306Z,23.82
2022-08-14T22:52:49.331Z,23.82
2022-08-14T22:55:05.968Z,23.69
2022-08-14T22:57:37.886Z,23.73
2022-08-14T23:00:25.374Z,23.65
2022-08-14T23:03:04.144Z,23.58
2022-08-14T23:05:38.816Z,23.54
2022-08-14T23:08:56.277Z,23.51
2022-08-14T23:11:10.317Z,23.48
2022-08-14T23:13:43.598Z,23.42
2022-08-14T23:16:20.085Z,23.44
2022-08-14T23:18:53.633Z,23.33
2022-08-14T23:21:28.718Z,23.28
2022-08-14T23:23:59.906Z,23.21
2022-08-14T23:26:49.449Z,23.11
2022-08-14T23:29:25.094Z,23.12
2022-08-14T23:31:56.884Z,23.06
2022-08-14T23:34:29.588Z,23.13
2022-08-14T23:37:03.694Z,23.10
2022-08-14T23:39:35.447Z,23.06
2022-08-14T23:42:12.045Z,22.93
2022-08-14T23:44:47.597Z,22.96
2022-08-14T23:47:26.806Z,22.91
2022-08-14T23:50:03.651Z,22.84
2022-08-14T23:52:51.160Z,22.79
2022-08-14T23:55:33.287Z,22.70
2022-08-14T23:58:03.907Z,22.61
